Bertram, Texas
Current Conditions -  °F | °C
As of 9:53 AM on Saturday 22 Nov 2014 (Local Time) from KBMQ Reporting Station
Overcast Overcast  
Wind Chill: 65°   Ceiling: 1100
Heat Index: 65°   Visibility: NA
Dew Point: 61°   Wind: 9mph
Humidity: 87%   Direction: 140°SE
Pressure: 29.99"   Gusts: 21mph
Location:  30.74°N, 98.06°W
Report Text: KBMQ 221553Z AUTO 14008G18KT OVC011 18/16 A2999 RMK AO2 SLP146 T01830161 $
Loading
Personal Weather Stations






























Interactive Weather Map New forecast layout! Learn more

10-Day Weather Forecast

Advertisements
Track Severe Weather on mobile